METAR Data
IDs: Format: Raw Decoded Include TAF

Data at: 1457 UTC 25 Jan 2020

METAR for:EBFS (Florennes(AB), --, BX)
Text:EBFS 251425Z AUTO 14003KT 9999 FEW080/// BKN100/// OVC110/// 07/04 Q1019 BLU
Temperature: 7.0°C ( 45°F)
Dewpoint: 4.0°C ( 39°F) [RH = 81%]
Pressure (altimeter):30.09 inches Hg (1019.0 mb)
Winds:from the SE (140 degrees) at 3 MPH (3 knots; 1.5 m/s)
Visibility:6 or more sm (10+ km)
Ceiling:10000 feet AGL
Clouds: few clouds at 8000 feet AGL, broken clouds at 10000 feet AGL, overcast cloud deck at 11000 feet AGL

TAF for:EBFS (Florennes(AB), --, BX)
Text:No data found